Terminal Aerodrome Forecast
Issued by NWS

Home | Current Version | Previous Version | Text Only | Print | Product List | Glossary On
Versions: 1 2 3 4 5 6 7 8 9 10 11 12 13 14
000
FTUS46 KMFR 071145
TAFRBG
TAF
KRBG 071145Z 0712/0812 36005KT P6SM SKC
     FM072200 35008KT P6SM SCT080
     FM080500 VRB03KT P6SM FEW080=

USA.gov is the U.S. government's official web portal to all federal, state and local government web resources and services.